createdAt,value
2023-04-27T00:00:36.494Z,91.9360
2023-04-27T00:01:44.558Z,92.6358
2023-04-27T00:02:52.801Z,93.6477
2023-04-27T00:04:00.853Z,93.3297
2023-04-27T00:05:09.095Z,92.9993
2023-04-27T00:06:16.978Z,92.4375
2023-04-27T00:07:24.910Z,92.3986
2023-04-27T00:08:32.844Z,92.6585
2023-04-27T00:09:40.891Z,92.8138
2023-04-27T00:10:48.964Z,91.1695
2023-04-27T00:11:57.180Z,91.7344
2023-04-27T00:13:05.179Z,92.3479
2023-04-27T00:14:13.277Z,91.4850
2023-04-27T00:15:21.341Z,90.8414
2023-04-27T00:16:29.434Z,91.2981
2023-04-27T00:17:37.506Z,91.0656
2023-04-27T00:18:45.499Z,91.1880
2023-04-27T00:19:53.561Z,92.0035
2023-04-27T00:21:01.665Z,91.4858
2023-04-27T00:22:09.735Z,91.0001
2023-04-27T00:23:17.634Z,91.1833
2023-04-27T00:24:25.693Z,90.6743
2023-04-27T00:25:33.739Z,90.5664
2023-04-27T00:26:41.999Z,90.5914
2023-04-27T00:27:50.051Z,90.7135
2023-04-27T00:28:58.098Z,90.6633
2023-04-27T00:30:06.158Z,90.5745
2023-04-27T00:31:14.158Z,90.5332
2023-04-27T00:32:22.283Z,89.6183
2023-04-27T00:33:30.352Z,90.0164
2023-04-27T00:34:38.342Z,90.0955
2023-04-27T00:35:46.423Z,90.5371
2023-04-27T00:36:54.477Z,89.8125
2023-04-27T00:38:02.409Z,91.5870
2023-04-27T00:39:10.523Z,92.0976
2023-04-27T00:40:18.554Z,91.8615
2023-04-27T00:41:27.062Z,91.4412
2023-04-27T00:42:34.805Z,90.8989
2023-04-27T00:43:43.078Z,88.8100
2023-04-27T00:44:50.966Z,88.7753
2023-04-27T00:45:58.996Z,88.8353
2023-04-27T00:47:07.260Z,88.3244
2023-04-27T00:48:15.103Z,89.3202
2023-04-27T00:49:23.211Z,89.9963
2023-04-27T00:50:31.301Z,91.7973
2023-04-27T00:51:39.295Z,91.0977
2023-04-27T00:52:47.265Z,90.8579
2023-04-27T00:53:55.326Z,91.5479
2023-04-27T00:55:03.391Z,90.9260
2023-04-27T00:56:11.856Z,90.0046
2023-04-27T00:57:19.606Z,89.6129
2023-04-27T00:58:27.726Z,89.2185
2023-04-27T00:59:35.767Z,89.2483
2023-04-27T01:00:43.824Z,89.0699
2023-04-27T01:01:51.918Z,89.6661
2023-04-27T01:03:00.056Z,90.1247
2023-04-27T01:04:08.267Z,90.3862
2023-04-27T01:05:16.068Z,90.8243
2023-04-27T01:06:24.112Z,90.9672
2023-04-27T01:07:32.109Z,91.0910
2023-04-27T01:08:40.154Z,90.9064
2023-04-27T01:09:48.217Z,91.4943
2023-04-27T01:10:56.346Z,91.4432
2023-04-27T01:12:04.621Z,91.4133
2023-04-27T01:13:12.658Z,91.4248
2023-04-27T01:14:20.572Z,91.7160
2023-04-27T01:15:28.695Z,92.4927
2023-04-27T01:16:36.802Z,92.4680
2023-04-27T01:17:44.792Z,92.8797
2023-04-27T01:18:53.028Z,92.8364
2023-04-27T01:20:00.905Z,92.3262
2023-04-27T01:21:08.966Z,91.9718
2023-04-27T01:22:16.901Z,91.7601
2023-04-27T01:23:25.002Z,91.7811
2023-04-27T01:24:33.072Z,91.8763
2023-04-27T01:25:41.232Z,92.0559
2023-04-27T01:26:49.361Z,92.2354
2023-04-27T01:27:57.493Z,92.0119
2023-04-27T01:29:05.422Z,91.5759
2023-04-27T01:30:13.492Z,91.1242
2023-04-27T01:31:21.593Z,91.6366
2023-04-27T01:32:29.631Z,91.4823
2023-04-27T01:33:37.670Z,91.8489
2023-04-27T01:34:45.748Z,91.6883
2023-04-27T01:35:53.954Z,91.7087
2023-04-27T01:37:01.743Z,91.7598
2023-04-27T01:38:09.817Z,91.6713
2023-04-27T01:39:17.878Z,91.6287
2023-04-27T01:40:26.125Z,92.2101
2023-04-27T01:41:34.175Z,92.4246
2023-04-27T01:42:42.451Z,92.4836
2023-04-27T01:43:50.370Z,92.3529
2023-04-27T01:44:58.321Z,92.5661
2023-04-27T01:46:06.399Z,92.6305
2023-04-27T01:47:14.473Z,92.8257
2023-04-27T01:48:22.465Z,92.7761
2023-04-27T01:49:30.604Z,92.9793
2023-04-27T01:50:38.661Z,93.2167
2023-04-27T01:51:46.548Z,93.1670
2023-04-27T01:52:54.661Z,93.3581
2023-04-27T01:54:02.662Z,93.5435
2023-04-27T01:55:11.030Z,92.3181
2023-04-27T01:56:18.934Z,91.8957
2023-04-27T01:57:27.076Z,92.2305
2023-04-27T01:58:35.133Z,93.2172
2023-04-27T01:59:43.235Z,93.7851
2023-04-27T02:00:51.204Z,93.3020
2023-04-27T02:01:59.289Z,92.5652
2023-04-27T02:03:07.483Z,93.1394
2023-04-27T02:04:15.719Z,93.1064
2023-04-27T02:05:23.322Z,92.4853
2023-04-27T02:06:31.407Z,91.6171
2023-04-27T02:07:39.462Z,92.2316
2023-04-27T02:08:47.773Z,93.5148
2023-04-27T02:09:55.797Z,93.6309
2023-04-27T02:11:03.762Z,93.8086
2023-04-27T02:12:11.946Z,93.3022
2023-04-27T02:13:19.888Z,93.6560
2023-04-27T02:14:27.971Z,92.9464
2023-04-27T02:15:36.152Z,92.3050
2023-04-27T02:16:44.113Z,92.9349
2023-04-27T02:17:52.192Z,93.5608
2023-04-27T02:19:00.215Z,94.0663
2023-04-27T02:20:08.153Z,94.4868
2023-04-27T02:21:16.245Z,93.7281
2023-04-27T02:22:24.271Z,93.1176
2023-04-27T02:23:32.449Z,94.5442
2023-04-27T02:24:40.640Z,95.5134
2023-04-27T02:25:48.580Z,95.6926
2023-04-27T02:26:56.849Z,95.4482
2023-04-27T02:28:04.692Z,95.0242
2023-04-27T02:29:13.060Z,94.8486
2023-04-27T02:30:20.889Z,94.3699
2023-04-27T02:31:29.056Z,94.0468
2023-04-27T02:32:36.997Z,93.0616
2023-04-27T02:33:44.997Z,93.4508
2023-04-27T02:34:52.959Z,94.0479
2023-04-27T02:36:01.008Z,94.7248
2023-04-27T02:37:09.033Z,95.5235
2023-04-27T02:38:17.299Z,95.6972
2023-04-27T02:39:25.309Z,95.7351
2023-04-27T02:40:33.504Z,95.2997
2023-04-27T02:41:41.457Z,94.7144
2023-04-27T02:42:49.522Z,95.0459
2023-04-27T02:43:57.606Z,96.0869
2023-04-27T02:45:05.675Z,96.0833
2023-04-27T02:46:13.740Z,95.9493
2023-04-27T02:47:21.762Z,95.9098
2023-04-27T02:48:29.926Z,96.0730
2023-04-27T02:49:38.176Z,96.2146
2023-04-27T02:50:45.793Z,95.8890
2023-04-27T02:51:53.863Z,95.7144
2023-04-27T02:53:02.082Z,95.1693
2023-04-27T02:54:10.143Z,94.9853
2023-04-27T02:55:18.257Z,95.3706
2023-04-27T02:56:26.425Z,95.1250
2023-04-27T02:57:34.305Z,94.9314
2023-04-27T02:58:42.393Z,95.2808
2023-04-27T02:59:50.459Z,95.5721
2023-04-27T03:00:58.561Z,95.6439
2023-04-27T03:02:06.587Z,94.9022
2023-04-27T03:03:14.905Z,94.7600
2023-04-27T03:04:22.624Z,94.8812
2023-04-27T03:05:30.630Z,94.8549
2023-04-27T03:06:38.707Z,94.4755
2023-04-27T03:07:46.934Z,93.0873
2023-04-27T03:08:54.955Z,92.8560
2023-04-27T03:10:02.969Z,92.7443
2023-04-27T03:11:11.113Z,93.3778
2023-04-27T03:12:19.300Z,93.9902
2023-04-27T03:13:27.198Z,92.5018
2023-04-27T03:14:35.252Z,92.6160
2023-04-27T03:15:43.549Z,92.7280
2023-04-27T03:16:51.511Z,92.3885
2023-04-27T03:17:59.521Z,92.1852
2023-04-27T03:19:07.385Z,92.2589
2023-04-27T03:20:15.440Z,92.1567
2023-04-27T03:21:23.476Z,92.4555
2023-04-27T03:22:31.748Z,93.1446
2023-04-27T03:23:39.775Z,93.5692
2023-04-27T03:24:47.841Z,93.8464
2023-04-27T03:25:55.916Z,93.5842
2023-04-27T03:27:03.904Z,93.9489
2023-04-27T03:28:12.126Z,95.0854
2023-04-27T03:29:20.095Z,94.9165
2023-04-27T03:30:28.134Z,94.9143
2023-04-27T03:31:36.236Z,94.7392
2023-04-27T03:32:47.039Z,94.6050
2023-04-27T03:33:57.063Z,94.1366
2023-04-27T03:35:05.134Z,94.4516
2023-04-27T03:36:13.165Z,94.8987
2023-04-27T03:37:21.345Z,95.4520
2023-04-27T03:38:29.421Z,95.9685
2023-04-27T03:39:37.484Z,96.0744
2023-04-27T03:40:45.582Z,95.9795
2023-04-27T03:41:53.668Z,95.6217
2023-04-27T03:43:01.685Z,95.3838
2023-04-27T03:44:09.852Z,95.1622
2023-04-27T03:45:17.782Z,95.8427
2023-04-27T03:46:25.979Z,95.0386
2023-04-27T03:47:33.977Z,95.3484
2023-04-27T03:48:41.829Z,95.5762
2023-04-27T03:49:49.914Z,96.2656
2023-04-27T03:50:58.056Z,96.6627
2023-04-27T03:52:06.208Z,97.7179
2023-04-27T03:53:14.225Z,97.7360
2023-04-27T03:54:22.245Z,97.4518
2023-04-27T03:55:30.353Z,96.8966
2023-04-27T03:56:38.481Z,96.4739
2023-04-27T03:57:46.586Z,96.4725
2023-04-27T03:58:54.591Z,96.5950
2023-04-27T04:00:02.687Z,96.4171
2023-04-27T04:01:11.116Z,97.0733
2023-04-27T04:02:18.709Z,97.5317
2023-04-27T04:03:26.958Z,97.6742
2023-04-27T04:04:34.953Z,97.5826
2023-04-27T04:05:42.911Z,97.0783
2023-04-27T04:06:51.025Z,96.7863
2023-04-27T04:07:59.039Z,96.3350
2023-04-27T04:09:07.285Z,96.4152
2023-04-27T04:10:15.161Z,97.5348
2023-04-27T04:11:23.264Z,98.1278
2023-04-27T04:12:31.314Z,98.1026
2023-04-27T04:13:39.422Z,97.6929
2023-04-27T04:14:47.535Z,97.0917
2023-04-27T04:15:55.658Z,96.5472
2023-04-27T04:17:03.449Z,96.0255
2023-04-27T04:18:11.555Z,95.8001
2023-04-27T04:19:20.760Z,95.5165
2023-04-27T04:20:32.677Z,95.4666
2023-04-27T04:21:40.683Z,95.2384
2023-04-27T04:22:48.777Z,95.4213
2023-04-27T04:23:56.845Z,95.6085
2023-04-27T04:25:04.962Z,95.0781
2023-04-27T04:26:12.974Z,94.8284
2023-04-27T04:27:20.988Z,94.6026
2023-04-27T04:28:29.015Z,94.2147
2023-04-27T04:29:37.082Z,94.1333
2023-04-27T04:30:45.019Z,93.6798
2023-04-27T04:31:53.176Z,93.4953
2023-04-27T04:33:01.177Z,93.2060
2023-04-27T04:34:09.342Z,93.0665
2023-04-27T04:35:17.392Z,93.3529
2023-04-27T04:36:25.428Z,93.0836
2023-04-27T04:37:33.537Z,93.2864
2023-04-27T04:38:41.583Z,94.6220
2023-04-27T04:39:49.655Z,95.7678
2023-04-27T04:40:57.833Z,96.0556
2023-04-27T04:42:05.810Z,96.1729
2023-04-27T04:43:13.801Z,95.8874
2023-04-27T04:44:21.865Z,95.8422
2023-04-27T04:45:29.812Z,95.8243
2023-04-27T04:46:37.947Z,96.1199
2023-04-27T04:47:45.938Z,95.9548
2023-04-27T04:48:54.847Z,95.8320
2023-04-27T04:50:02.418Z,95.3308
2023-04-27T04:51:10.216Z,95.6304
2023-04-27T04:52:18.438Z,95.9768
2023-04-27T04:53:26.280Z,95.5967
2023-04-27T04:54:34.414Z,95.1251
2023-04-27T04:55:42.475Z,95.2617
2023-04-27T04:56:50.632Z,95.5638
2023-04-27T04:57:58.622Z,95.0100
2023-04-27T04:59:06.571Z,94.9449
2023-04-27T05:00:14.603Z,95.9025
2023-04-27T05:01:22.673Z,96.7929
2023-04-27T05:02:30.756Z,97.0179
2023-04-27T05:03:38.960Z,95.9875
2023-04-27T05:04:47.143Z,95.1060
2023-04-27T05:05:55.113Z,95.5041
2023-04-27T05:07:03.090Z,95.1420
2023-04-27T05:08:11.062Z,95.4204
2023-04-27T05:09:19.178Z,95.6566
2023-04-27T05:10:27.194Z,95.5327
2023-04-27T05:11:35.353Z,95.8974
2023-04-27T05:12:43.356Z,96.1223
2023-04-27T05:13:51.477Z,95.7708
2023-04-27T05:14:59.338Z,95.2949
2023-04-27T05:16:07.468Z,95.5115
2023-04-27T05:17:15.493Z,95.5235
2023-04-27T05:18:23.633Z,95.4058
2023-04-27T05:19:31.776Z,95.2366
2023-04-27T05:20:39.735Z,94.9571
2023-04-27T05:21:47.987Z,94.7639
2023-04-27T05:22:55.889Z,94.7556
2023-04-27T05:24:03.927Z,94.7844
2023-04-27T05:25:12.097Z,94.4678
2023-04-27T05:26:20.045Z,94.3421
2023-04-27T05:27:28.096Z,94.1237
2023-04-27T05:28:36.177Z,93.7648
2023-04-27T05:29:44.103Z,93.5859
2023-04-27T05:30:52.201Z,93.4554
2023-04-27T05:32:00.357Z,93.3109
2023-04-27T05:33:08.449Z,93.3264
2023-04-27T05:34:16.597Z,93.0152
2023-04-27T05:35:24.569Z,93.0416
2023-04-27T05:36:32.609Z,92.1669
2023-04-27T05:37:40.572Z,92.6129
2023-04-27T05:38:48.693Z,92.9050
2023-04-27T05:39:56.813Z,91.8276
2023-04-27T05:41:04.826Z,90.9614
2023-04-27T05:42:12.867Z,91.8213
2023-04-27T05:43:20.963Z,93.1419
2023-04-27T05:44:28.911Z,93.5215
2023-04-27T05:45:37.005Z,94.1634
2023-04-27T05:46:45.013Z,94.2115
2023-04-27T05:47:53.232Z,94.1746
2023-04-27T05:49:01.361Z,94.4462
2023-04-27T05:50:09.353Z,93.9466
2023-04-27T05:51:17.394Z,93.7489
2023-04-27T05:52:25.375Z,93.5071
2023-04-27T05:53:33.496Z,93.3522
2023-04-27T05:54:41.487Z,93.7949
2023-04-27T05:55:49.682Z,93.8014
2023-04-27T05:56:57.704Z,93.9829
2023-04-27T05:58:08.963Z,94.8274
2023-04-27T05:59:18.470Z,94.3233
2023-04-27T06:00:26.554Z,95.0515
2023-04-27T06:01:34.588Z,95.1371
2023-04-27T06:02:42.956Z,94.9330
2023-04-27T06:03:50.924Z,94.7840
2023-04-27T06:04:59.086Z,94.3709
2023-04-27T06:06:06.904Z,94.0272
2023-04-27T06:07:16.153Z,94.0362
2023-04-27T06:08:23.112Z,93.4340
2023-04-27T06:09:31.069Z,92.4171
2023-04-27T06:10:39.108Z,91.2929
2023-04-27T06:11:47.233Z,91.4796
2023-04-27T06:12:55.347Z,91.2185
2023-04-27T06:14:03.255Z,91.5257
2023-04-27T06:15:11.287Z,92.3284
2023-04-27T06:16:19.449Z,92.8579
2023-04-27T06:17:27.508Z,92.5516
2023-04-27T06:18:35.559Z,93.1503
2023-04-27T06:19:43.646Z,92.7655
2023-04-27T06:20:51.790Z,92.9796
2023-04-27T06:21:59.709Z,91.2933
2023-04-27T06:23:07.789Z,91.3630
2023-04-27T06:24:15.848Z,90.2790
2023-04-27T06:25:27.074Z,87.8650
2023-04-27T06:26:36.862Z,88.7654
2023-04-27T06:27:44.788Z,89.4167
2023-04-27T06:28:52.847Z,91.0785
2023-04-27T06:30:01.043Z,92.3111
2023-04-27T06:31:09.109Z,92.3016
2023-04-27T06:32:17.081Z,91.9913
2023-04-27T06:33:25.109Z,90.5391
2023-04-27T06:34:33.174Z,91.3584
2023-04-27T06:35:41.250Z,89.4061
2023-04-27T06:36:49.338Z,89.2230
2023-04-27T06:37:57.471Z,90.3741
2023-04-27T06:39:05.409Z,91.2814
2023-04-27T06:40:13.485Z,91.3354
2023-04-27T06:41:21.659Z,91.1149
2023-04-27T06:42:29.588Z,89.2131
2023-04-27T06:43:37.569Z,88.4715
2023-04-27T06:44:45.705Z,89.6712
2023-04-27T06:45:53.906Z,90.0985
2023-04-27T06:47:01.848Z,88.9916
2023-04-27T06:48:10.012Z,88.2396
2023-04-27T06:49:17.939Z,89.3151
2023-04-27T06:50:26.027Z,89.0661
2023-04-27T06:51:34.120Z,88.6617
2023-04-27T06:52:42.320Z,89.1521
2023-04-27T06:53:50.258Z,90.0705
2023-04-27T06:54:58.278Z,90.7352
2023-04-27T06:56:06.309Z,89.8485
2023-04-27T06:57:14.310Z,88.4739
2023-04-27T06:58:22.359Z,88.8655
2023-04-27T06:59:30.412Z,88.8330
2023-04-27T07:00:38.518Z,89.0848
2023-04-27T07:01:46.561Z,89.9254
2023-04-27T07:02:54.673Z,89.1433
2023-04-27T07:04:02.780Z,88.8646
2023-04-27T07:05:10.721Z,88.3198
2023-04-27T07:06:18.833Z,86.5034
2023-04-27T07:07:26.909Z,87.9491
2023-04-27T07:08:35.034Z,88.6512
2023-04-27T07:09:43.113Z,88.9170
2023-04-27T07:10:51.136Z,89.7456
2023-04-27T07:11:59.226Z,90.4736
2023-04-27T07:13:09.119Z,90.2267
2023-04-27T07:14:20.077Z,90.6210
2023-04-27T07:15:28.154Z,90.5711
2023-04-27T07:16:36.274Z,90.1887
2023-04-27T07:17:44.261Z,89.7383
2023-04-27T07:18:52.336Z,90.1428
2023-04-27T07:20:00.376Z,89.6536
2023-04-27T07:21:08.549Z,89.3316
2023-04-27T07:22:16.518Z,88.5972
2023-04-27T07:23:24.569Z,88.1591
2023-04-27T07:24:32.690Z,88.5358
2023-04-27T07:25:40.563Z,88.0881
2023-04-27T07:26:48.654Z,85.5924
2023-04-27T07:27:56.704Z,84.2969
2023-04-27T07:29:14.439Z,85.4047
2023-04-27T07:30:17.910Z,83.6157
2023-04-27T07:31:26.301Z,80.5825
2023-04-27T07:32:33.983Z,81.1996
2023-04-27T07:33:42.006Z,82.6029
2023-04-27T07:34:54.082Z,82.3751
2023-04-27T07:36:02.922Z,79.0337
2023-04-27T07:37:11.027Z,78.7400
2023-04-27T07:38:18.976Z,80.1401
2023-04-27T07:39:27.057Z,79.9126
2023-04-27T07:40:35.059Z,77.8204
2023-04-27T07:41:43.223Z,78.7586
2023-04-27T07:42:51.289Z,78.1339
2023-04-27T07:43:59.395Z,77.5037
2023-04-27T07:45:07.514Z,78.0734
2023-04-27T07:46:15.459Z,77.1941
2023-04-27T07:47:23.574Z,80.6060
2023-04-27T07:48:31.544Z,81.0813
2023-04-27T07:49:39.642Z,79.7063
2023-04-27T07:50:47.646Z,78.2924
2023-04-27T07:51:55.782Z,78.0144
2023-04-27T07:53:03.791Z,78.3953
2023-04-27T07:54:11.774Z,78.3329
2023-04-27T07:55:19.859Z,77.0286
2023-04-27T07:56:28.055Z,76.5065
2023-04-27T07:57:36.139Z,78.1269
2023-04-27T07:58:44.076Z,76.0463
2023-04-27T07:59:52.184Z,76.3590
2023-04-27T08:01:00.194Z,76.2010
2023-04-27T08:02:19.113Z,75.3199
2023-04-27T08:03:21.231Z,72.5613
2023-04-27T08:04:29.406Z,72.1247
2023-04-27T08:05:37.490Z,73.6563
2023-04-27T08:06:45.880Z,73.2723
2023-04-27T08:07:53.990Z,73.7316
2023-04-27T08:09:01.550Z,73.7003
2023-04-27T08:10:09.589Z,76.0254
2023-04-27T08:11:17.629Z,76.0462
2023-04-27T08:12:25.639Z,76.7906
2023-04-27T08:13:33.893Z,75.5284
2023-04-27T08:14:41.753Z,74.8539
2023-04-27T08:15:49.825Z,73.9832
2023-04-27T08:16:58.027Z,71.6355
2023-04-27T08:18:05.991Z,69.9899
2023-04-27T08:19:14.207Z,67.9105
2023-04-27T08:20:21.937Z,72.2708
2023-04-27T08:21:29.989Z,76.9862
2023-04-27T08:22:38.063Z,75.2612
2023-04-27T08:23:46.106Z,73.7674
2023-04-27T08:24:54.211Z,72.3064
2023-04-27T08:26:02.311Z,71.5103
2023-04-27T08:27:10.264Z,70.5997
2023-04-27T08:28:18.428Z,71.2215
2023-04-27T08:29:28.813Z,71.9200
2023-04-27T08:30:39.482Z,72.0806
2023-04-27T08:31:47.529Z,71.5510
2023-04-27T08:32:55.559Z,72.7409
2023-04-27T08:34:03.449Z,71.1763
2023-04-27T08:35:11.546Z,67.5984
2023-04-27T08:36:19.584Z,67.9503
2023-04-27T08:37:27.753Z,66.7020
2023-04-27T08:38:35.842Z,67.0178
2023-04-27T08:39:43.804Z,68.2418
2023-04-27T08:40:51.897Z,69.3913
2023-04-27T08:42:00.014Z,72.1599
2023-04-27T08:43:08.008Z,70.5191
2023-04-27T08:44:16.107Z,67.2809
2023-04-27T08:45:24.115Z,69.8777
2023-04-27T08:46:32.163Z,71.2804
2023-04-27T08:47:43.421Z,70.6061
2023-04-27T08:48:53.059Z,70.8377
2023-04-27T08:50:01.121Z,68.8467
2023-04-27T08:51:09.121Z,67.0124
2023-04-27T08:52:17.356Z,65.8105
2023-04-27T08:53:25.404Z,68.5172
2023-04-27T08:54:33.313Z,67.6084
2023-04-27T08:55:41.496Z,67.5752
2023-04-27T08:56:49.519Z,68.4581
2023-04-27T08:57:57.590Z,69.0564
2023-04-27T08:59:05.661Z,68.3597
2023-04-27T09:00:13.711Z,67.1744
2023-04-27T09:01:21.944Z,64.3837
2023-04-27T09:02:30.036Z,63.9062
2023-04-27T09:03:37.995Z,64.7707
2023-04-27T09:04:45.909Z,67.1851
2023-04-27T09:06:04.369Z,71.6198
2023-04-27T09:07:06.897Z,71.5259
2023-04-27T09:08:14.975Z,72.7106
2023-04-27T09:09:23.008Z,71.4102
2023-04-27T09:10:31.283Z,74.0688
2023-04-27T09:11:39.165Z,70.4564
2023-04-27T09:12:47.222Z,69.8858
2023-04-27T09:13:55.225Z,71.3448
2023-04-27T09:15:03.308Z,72.7203
2023-04-27T09:16:11.523Z,73.7272
2023-04-27T09:17:19.339Z,70.6469
2023-04-27T09:18:27.321Z,72.1486
2023-04-27T09:19:35.406Z,69.0199
2023-04-27T09:20:43.552Z,68.3926
2023-04-27T09:21:51.714Z,69.9364
2023-04-27T09:22:59.871Z,70.0250
2023-04-27T09:24:07.744Z,69.6158
2023-04-27T09:25:15.779Z,70.0111
2023-04-27T09:26:23.795Z,65.4699
2023-04-27T09:27:31.824Z,66.1966
2023-04-27T09:28:39.944Z,66.3948
2023-04-27T09:29:48.192Z,68.6506
2023-04-27T09:30:56.055Z,66.9660
2023-04-27T09:32:04.181Z,63.2551
2023-04-27T09:33:12.081Z,63.8056
2023-04-27T09:34:20.122Z,66.2211
2023-04-27T09:35:28.358Z,68.1494
2023-04-27T09:36:36.226Z,68.8430
2023-04-27T09:37:44.426Z,65.1930
2023-04-27T09:38:52.490Z,65.8724
2023-04-27T09:40:00.449Z,67.2257
2023-04-27T09:41:08.594Z,63.2974
2023-04-27T09:42:16.515Z,62.8213
2023-04-27T09:43:24.633Z,65.3558
2023-04-27T09:44:32.917Z,68.0867
2023-04-27T09:45:40.856Z,68.0965
2023-04-27T09:46:48.743Z,68.0074
2023-04-27T09:47:56.887Z,67.1178
2023-04-27T09:49:04.843Z,66.9169
2023-04-27T09:50:12.916Z,64.7758
2023-04-27T09:51:21.071Z,66.2482
2023-04-27T09:52:29.186Z,63.2774
2023-04-27T09:53:37.077Z,63.7747
2023-04-27T09:54:45.234Z,65.0096
2023-04-27T09:55:53.435Z,62.1116
2023-04-27T09:57:01.347Z,65.8214
2023-04-27T09:58:09.375Z,64.3155
2023-04-27T09:59:17.449Z,64.1727
2023-04-27T10:00:25.469Z,58.4817
2023-04-27T10:01:35.274Z,61.3500
2023-04-27T10:02:53.068Z,59.1217
2023-04-27T10:03:59.443Z,59.7427
2023-04-27T10:05:07.364Z,60.9341
2023-04-27T10:06:15.471Z,62.5125
2023-04-27T10:07:23.566Z,61.5114
2023-04-27T10:08:31.891Z,62.1785
2023-04-27T10:09:39.670Z,60.5256
2023-04-27T10:10:47.698Z,59.8836
2023-04-27T10:11:55.727Z,58.9763
2023-04-27T10:13:03.883Z,59.4609
2023-04-27T10:14:11.790Z,56.3555
2023-04-27T10:15:19.836Z,59.0545
2023-04-27T10:16:27.909Z,58.8845
2023-04-27T10:17:36.116Z,56.6514
2023-04-27T10:18:44.052Z,53.8181
2023-04-27T10:19:54.305Z,51.8304
2023-04-27T10:21:05.024Z,56.4901
2023-04-27T10:22:13.166Z,53.6759
2023-04-27T10:23:21.361Z,53.8221
2023-04-27T10:24:29.227Z,51.3884
2023-04-27T10:25:37.323Z,52.4974
2023-04-27T10:26:45.299Z,51.8165
2023-04-27T10:27:53.370Z,54.6850
2023-04-27T10:29:01.324Z,57.6259
2023-04-27T10:30:09.405Z,56.6389
2023-04-27T10:31:17.603Z,57.6162
2023-04-27T10:32:25.683Z,55.0177
2023-04-27T10:33:33.639Z,51.2846
2023-04-27T10:34:41.662Z,50.4768
2023-04-27T10:35:49.856Z,55.1203
2023-04-27T10:36:57.788Z,53.9780
2023-04-27T10:38:05.845Z,55.9250
2023-04-27T10:39:14.217Z,52.4366
2023-04-27T10:40:21.988Z,51.6713
2023-04-27T10:41:30.099Z,53.5024
2023-04-27T10:42:37.974Z,50.7637
2023-04-27T10:43:46.035Z,49.5177
2023-04-27T10:44:54.106Z,48.2811
2023-04-27T10:46:02.346Z,46.5213
2023-04-27T10:47:10.297Z,47.2450
2023-04-27T10:48:18.270Z,50.9625
2023-04-27T10:49:26.441Z,50.2609
2023-04-27T10:50:34.607Z,47.7922
2023-04-27T10:51:42.592Z,46.8963
2023-04-27T10:52:50.636Z,51.4422
2023-04-27T10:53:58.632Z,54.8163
2023-04-27T10:55:06.679Z,51.4783
2023-04-27T10:56:14.741Z,52.0940
2023-04-27T10:57:22.712Z,50.3282
2023-04-27T10:58:41.421Z,48.8990
2023-04-27T10:59:43.960Z,49.5850
2023-04-27T11:00:51.749Z,48.1760
2023-04-27T11:01:59.884Z,51.7558
2023-04-27T11:03:08.037Z,44.8200
2023-04-27T11:04:16.478Z,46.6318
2023-04-27T11:05:24.058Z,44.8621
2023-04-27T11:06:32.194Z,45.7214
2023-04-27T11:07:40.182Z,46.5279
2023-04-27T11:08:48.231Z,46.7931
2023-04-27T11:09:56.284Z,43.6511
2023-04-27T11:11:04.241Z,43.1132
2023-04-27T11:12:12.289Z,40.3242
2023-04-27T11:13:20.393Z,43.3292
2023-04-27T11:14:28.498Z,39.5745
2023-04-27T11:15:36.624Z,42.9344
2023-04-27T11:16:44.687Z,44.3602
2023-04-27T11:17:52.729Z,48.0884
2023-04-27T11:19:00.718Z,48.8901
2023-04-27T11:20:08.801Z,50.0009
2023-04-27T11:21:16.904Z,53.4924
2023-04-27T11:22:24.880Z,53.3874
2023-04-27T11:23:33.060Z,54.1798
2023-04-27T11:24:40.999Z,50.5625
2023-04-27T11:25:48.978Z,54.1233
2023-04-27T11:26:57.074Z,55.8756
2023-04-27T11:28:05.116Z,60.5329
2023-04-27T11:29:13.653Z,58.9059
2023-04-27T11:30:21.311Z,57.0339
2023-04-27T11:31:29.402Z,58.6503
2023-04-27T11:32:37.566Z,56.2809
2023-04-27T11:33:45.457Z,54.5699
2023-04-27T11:34:54.657Z,54.3326
2023-04-27T11:36:06.432Z,56.3968
2023-04-27T11:37:18.429Z,55.9565
2023-04-27T11:38:27.487Z,51.9865
2023-04-27T11:39:35.382Z,51.5082
2023-04-27T11:40:43.435Z,51.9967
2023-04-27T11:41:51.630Z,54.9747
2023-04-27T11:42:59.675Z,53.9949
2023-04-27T11:44:07.758Z,50.7257
2023-04-27T11:45:15.787Z,48.1271
2023-04-27T11:46:23.839Z,50.9383
2023-04-27T11:47:31.935Z,52.4617
2023-04-27T11:48:39.921Z,50.8610
2023-04-27T11:49:47.998Z,45.7374
2023-04-27T11:50:56.110Z,46.6189
2023-04-27T11:52:04.093Z,46.1933
2023-04-27T11:53:12.034Z,45.3550
2023-04-27T11:54:20.082Z,41.3011
2023-04-27T11:55:28.189Z,42.4095
2023-04-27T11:56:36.470Z,45.9009
2023-04-27T11:57:44.401Z,47.2606
2023-04-27T11:58:52.314Z,45.4144
2023-04-27T12:00:00.646Z,41.4106
2023-04-27T12:01:08.587Z,46.5724
2023-04-27T12:02:16.620Z,37.5727
2023-04-27T12:03:24.984Z,35.4393
2023-04-27T12:04:32.907Z,33.7046
2023-04-27T12:05:40.954Z,38.0973
2023-04-27T12:06:48.855Z,38.8550
2023-04-27T12:07:56.877Z,45.0787
2023-04-27T12:09:04.986Z,47.2009
2023-04-27T12:10:12.879Z,48.5752
2023-04-27T12:11:20.965Z,45.3678
2023-04-27T12:12:29.034Z,44.6561
2023-04-27T12:13:37.186Z,43.9076
2023-04-27T12:14:45.352Z,40.6419
2023-04-27T12:15:53.572Z,42.8715
2023-04-27T12:17:01.473Z,40.5897
2023-04-27T12:18:09.602Z,40.7114
2023-04-27T12:19:17.640Z,40.0128
2023-04-27T12:20:25.718Z,42.2125
2023-04-27T12:21:33.611Z,38.8322
2023-04-27T12:22:41.717Z,39.0215
2023-04-27T12:23:49.863Z,37.4546
2023-04-27T12:24:57.734Z,37.0150
2023-04-27T12:26:05.806Z,36.0499
2023-04-27T12:27:13.858Z,37.6420
2023-04-27T12:28:22.003Z,42.3425
2023-04-27T12:29:29.998Z,38.1552
2023-04-27T12:30:38.156Z,40.0073
2023-04-27T12:31:46.256Z,38.6090
2023-04-27T12:32:54.416Z,38.2188
2023-04-27T12:34:02.304Z,36.4913
2023-04-27T12:35:10.494Z,38.4915
2023-04-27T12:36:18.567Z,40.0974
2023-04-27T12:37:27.146Z,40.6246
2023-04-27T12:38:34.440Z,39.9000
2023-04-27T12:39:42.516Z,39.9817
2023-04-27T12:40:50.608Z,38.4067
2023-04-27T12:41:58.806Z,37.7079
2023-04-27T12:43:06.734Z,38.4979
2023-04-27T12:44:15.068Z,37.5006
2023-04-27T12:45:22.905Z,38.7274
2023-04-27T12:46:30.995Z,36.7674
2023-04-27T12:47:58.345Z,37.3790
2023-04-27T12:48:51.985Z,36.2880
2023-04-27T12:50:00.013Z,39.4737
2023-04-27T12:51:08.242Z,35.7758
2023-04-27T12:52:16.132Z,37.0380
2023-04-27T12:53:24.150Z,34.8929
2023-04-27T12:54:32.240Z,34.3813
2023-04-27T12:55:40.433Z,36.5630
2023-04-27T12:56:48.385Z,33.4425
2023-04-27T12:57:56.545Z,35.2396
2023-04-27T12:59:04.604Z,35.0413
2023-04-27T13:00:12.690Z,35.0298
2023-04-27T13:01:20.634Z,37.4278
2023-04-27T13:02:28.938Z,36.5621
2023-04-27T13:03:37.095Z,38.3894
2023-04-27T13:04:45.055Z,42.3657
2023-04-27T13:05:53.028Z,40.1439
2023-04-27T13:07:00.938Z,37.3626
2023-04-27T13:08:08.997Z,38.4378
2023-04-27T13:09:17.099Z,40.1789
2023-04-27T13:10:25.226Z,38.0496
2023-04-27T13:11:33.282Z,38.9614
2023-04-27T13:12:41.608Z,35.9129
2023-04-27T13:13:49.411Z,36.1367
2023-04-27T13:14:57.547Z,39.3856
2023-04-27T13:16:05.598Z,42.0961
2023-04-27T13:17:13.627Z,38.1561
2023-04-27T13:18:21.663Z,40.8842
2023-04-27T13:19:29.725Z,41.9156
2023-04-27T13:20:38.002Z,40.9498
2023-04-27T13:21:45.709Z,40.2253
2023-04-27T13:22:53.773Z,41.9037
2023-04-27T13:24:01.841Z,41.2529
2023-04-27T13:25:10.020Z,42.8536
2023-04-27T13:26:17.968Z,41.0701
2023-04-27T13:27:26.421Z,43.7962
2023-04-27T13:28:34.161Z,45.5821
2023-04-27T13:29:42.249Z,49.6205
2023-04-27T13:30:50.251Z,46.7515
2023-04-27T13:31:58.384Z,44.9702
2023-04-27T13:33:21.096Z,41.1485
2023-04-27T13:34:19.322Z,39.8622
2023-04-27T13:35:27.413Z,38.2576
2023-04-27T13:36:35.306Z,39.5103
2023-04-27T13:37:43.402Z,38.1849
2023-04-27T13:38:51.444Z,36.9738
2023-04-27T13:39:59.634Z,41.6645
2023-04-27T13:41:07.664Z,38.1828
2023-04-27T13:42:15.701Z,36.3757
2023-04-27T13:43:23.806Z,35.5036
2023-04-27T13:44:31.972Z,33.4296